Time;durP1;ratioP1;P1;durP2;ratioP2;P2;SDS_P1;SDS_P2;PMS_P1;PMS_P2;Temp;Humidity;BMP_temperature;BMP_pressure;BME280_temperature;BME280_humidity;BME280_pressure;Samples;Min_cycle;Max_cycle;Signal;HPM_P1;HPM_P2
2024/01/24 00:00:06;;;;;;;35.65;18.48;;;;;;;;;;5011840;28;20029;-76
2024/01/24 00:02:36;;;;;;;35.05;17.35;;;;;;;;;;5012035;28;20041;-76
2024/01/24 00:05:01;;;;;;;32.00;17.38;;;;;;;;;;5010503;28;20046;-78
2024/01/24 00:07:28;;;;;;;34.55;16.88;;;;;;;;;;5014002;28;20037;-78
2024/01/24 00:09:53;;;;;;;38.90;19.17;;;;;;;;;;5031935;28;20131;-76
2024/01/24 00:12:20;;;;;;;42.10;23.42;;;;;;;;;;5010676;28;20034;-78
2024/01/24 00:14:46;;;;;;;57.78;25.58;;;;;;;;;;5010444;28;20038;-78
2024/01/24 00:17:12;;;;;;;60.55;25.48;;;;;;;;;;5010595;28;20480;-76
2024/01/24 00:19:37;;;;;;;67.22;30.45;;;;;;;;;;5011667;28;20033;-76
2024/01/24 00:22:05;;;;;;;61.38;27.83;;;;;;;;;;5012367;28;20133;-77
2024/01/24 00:24:31;;;;;;;55.28;28.02;;;;;;;;;;5000437;28;20137;-77
2024/01/24 00:26:57;;;;;;;54.38;26.63;;;;;;;;;;5011668;28;20025;-76
2024/01/24 00:29:23;;;;;;;50.42;25.60;;;;;;;;;;5012231;28;20036;-77
2024/01/24 00:31:48;;;;;;;51.63;26.63;;;;;;;;;;4993218;28;20057;-78
2024/01/24 00:34:15;;;;;;;53.22;27.52;;;;;;;;;;5011066;28;20645;-77
2024/01/24 00:36:41;;;;;;;47.47;23.20;;;;;;;;;;5012072;28;20439;-77
2024/01/24 00:39:07;;;;;;;52.90;26.05;;;;;;;;;;5028485;28;20040;-78
2024/01/24 00:41:33;;;;;;;53.33;26.83;;;;;;;;;;5031845;28;20029;-77
2024/01/24 00:43:59;;;;;;;66.32;30.35;;;;;;;;;;5016258;28;20083;-77
2024/01/24 00:46:25;;;;;;;51.40;24.95;;;;;;;;;;5011665;28;20121;-77
2024/01/24 00:48:51;;;;;;;50.92;28.15;;;;;;;;;;5011776;28;20113;-78
2024/01/24 00:51:16;;;;;;;53.42;26.25;;;;;;;;;;5011857;28;20057;-77
2024/01/24 00:53:50;;;;;;;52.75;25.25;;;;;;;;;;5010617;28;20033;-78
2024/01/24 00:56:15;;;;;;;53.72;24.55;;;;;;;;;;5012875;28;20508;-78
2024/01/24 00:58:41;;;;;;;46.03;24.27;;;;;;;;;;4996979;28;20141;-78
2024/01/24 01:01:07;;;;;;;48.80;25.55;;;;;;;;;;5010684;28;20076;-77
2024/01/24 01:03:32;;;;;;;44.30;23.23;;;;;;;;;;5012406;28;20041;-77
2024/01/24 01:06:01;;;;;;;44.95;23.45;;;;;;;;;;5015294;28;20483;-78
2024/01/24 01:08:27;;;;;;;52.42;25.55;;;;;;;;;;5015640;28;20042;-77
2024/01/24 01:10:53;;;;;;;47.63;25.05;;;;;;;;;;5014392;28;20022;-77
2024/01/24 01:13:19;;;;;;;43.22;24.23;;;;;;;;;;5014172;28;20380;-77
2024/01/24 01:15:44;;;;;;;47.22;23.17;;;;;;;;;;5015130;28;20480;-76
2024/01/24 01:18:10;;;;;;;45.72;23.40;;;;;;;;;;5015009;28;20507;-77
2024/01/24 01:20:36;;;;;;;46.88;23.60;;;;;;;;;;5015379;28;20033;-76
2024/01/24 01:23:02;;;;;;;44.95;23.05;;;;;;;;;;5020532;28;20376;-77
2024/01/24 01:25:28;;;;;;;45.55;23.85;;;;;;;;;;5034685;28;20025;-77
2024/01/24 01:27:54;;;;;;;44.00;23.45;;;;;;;;;;5034810;28;20083;-77
2024/01/24 01:30:20;;;;;;;39.67;22.98;;;;;;;;;;5033670;28;20091;-76
2024/01/24 01:32:46;;;;;;;47.58;22.77;;;;;;;;;;5001783;28;20057;-77
2024/01/24 01:35:12;;;;;;;43.42;22.90;;;;;;;;;;5014956;28;20068;-78
2024/01/24 01:37:38;;;;;;;46.88;25.08;;;;;;;;;;5013578;28;20041;-78
2024/01/24 01:40:06;;;;;;;43.88;24.55;;;;;;;;;;5014991;28;20068;-77
2024/01/24 01:42:32;;;;;;;47.97;24.17;;;;;;;;;;5014835;28;20056;-77
2024/01/24 01:44:58;;;;;;;57.17;29.73;;;;;;;;;;5013521;28;20083;-77
2024/01/24 01:47:25;;;;;;;50.95;27.15;;;;;;;;;;5030401;28;20037;-78
2024/01/24 01:49:52;;;;;;;50.00;25.08;;;;;;;;;;5034574;28;20065;-77
2024/01/24 01:52:20;;;;;;;48.22;24.88;;;;;;;;;;5033322;28;20398;-78
2024/01/24 01:54:47;;;;;;;50.53;25.90;;;;;;;;;;5033689;28;20064;-78
2024/01/24 01:57:14;;;;;;;48.75;25.40;;;;;;;;;;5033169;28;20087;-78
2024/01/24 01:59:41;;;;;;;48.50;25.08;;;;;;;;;;5034053;28;20045;-78
2024/01/24 02:02:08;;;;;;;46.03;23.67;;;;;;;;;;5016684;28;20033;-78
2024/01/24 02:04:33;;;;;;;45.80;21.55;;;;;;;;;;5016369;28;20523;-78
2024/01/24 02:07:00;;;;;;;42.50;22.25;;;;;;;;;;5034152;28;20116;-76
2024/01/24 02:09:27;;;;;;;44.13;21.80;;;;;;;;;;5019817;28;20472;-76
2024/01/24 02:11:54;;;;;;;39.13;22.13;;;;;;;;;;5013266;28;20052;-76
2024/01/24 02:14:23;;;;;;;39.75;22.15;;;;;;;;;;5014083;28;20071;-78
2024/01/24 02:16:49;;;;;;;41.63;24.17;;;;;;;;;;5013368;28;20037;-78
2024/01/24 02:19:14;;;;;;;42.67;23.85;;;;;;;;;;5025620;28;20045;-78
2024/01/24 02:21:42;;;;;;;37.50;22.27;;;;;;;;;;5034183;28;20095;-78
2024/01/24 02:24:12;;;;;;;44.58;21.77;;;;;;;;;;5033508;28;20582;-78
2024/01/24 02:26:38;;;;;;;38.70;21.38;;;;;;;;;;5032862;28;20092;-78
2024/01/24 02:29:05;;;;;;;45.95;24.45;;;;;;;;;;5033561;28;20037;-78
2024/01/24 02:31:30;;;;;;;50.88;23.45;;;;;;;;;;5032412;28;20479;-78
2024/01/24 02:33:56;;;;;;;58.20;25.92;;;;;;;;;;5032293;28;20033;-77
2024/01/24 02:36:22;;;;;;;35.55;21.95;;;;;;;;;;5033514;28;20037;-77
2024/01/24 02:38:47;;;;;;;48.40;24.63;;;;;;;;;;5033460;28;20045;-78
2024/01/24 02:41:13;;;;;;;38.50;21.73;;;;;;;;;;4999252;28;20057;-78
2024/01/24 02:43:39;;;;;;;41.17;22.45;;;;;;;;;;5023454;28;20034;-77
2024/01/24 02:46:05;;;;;;;44.97;21.25;;;;;;;;;;5012187;28;20399;-77
2024/01/24 02:48:31;;;;;;;53.47;26.58;;;;;;;;;;5019832;28;20415;-77
2024/01/24 02:50:57;;;;;;;47.28;24.67;;;;;;;;;;5032379;28;20044;-77
2024/01/24 02:53:22;;;;;;;44.65;24.67;;;;;;;;;;5015558;28;20037;-76
2024/01/24 02:55:48;;;;;;;42.80;23.20;;;;;;;;;;5033154;28;20418;-77
2024/01/24 02:58:14;;;;;;;40.40;19.20;;;;;;;;;;5032919;28;20084;-76
2024/01/24 03:00:40;;;;;;;35.83;19.30;;;;;;;;;;5033386;28;20099;-76
2024/01/24 03:03:06;;;;;;;39.20;20.17;;;;;;;;;;5032540;28;20037;-78
2024/01/24 03:05:32;;;;;;;36.65;20.08;;;;;;;;;;5032829;28;20549;-78
2024/01/24 03:07:59;;;;;;;38.92;18.77;;;;;;;;;;5033202;28;20042;-77
2024/01/24 03:10:27;;;;;;;37.22;18.55;;;;;;;;;;5033157;28;20531;-77
2024/01/24 03:12:54;;;;;;;32.35;18.58;;;;;;;;;;5033665;28;20501;-77
2024/01/24 03:15:20;;;;;;;34.85;15.35;;;;;;;;;;5032339;28;20244;-77
2024/01/24 03:17:46;;;;;;;33.78;18.13;;;;;;;;;;5032640;28;20025;-77
2024/01/24 03:20:13;;;;;;;35.95;16.73;;;;;;;;;;5033178;28;20083;-78
2024/01/24 03:22:42;;;;;;;30.77;16.92;;;;;;;;;;5033319;28;20078;-78
2024/01/24 03:25:08;;;;;;;30.50;15.25;;;;;;;;;;5032270;28;20087;-78
2024/01/24 03:27:34;;;;;;;33.42;17.67;;;;;;;;;;5032522;28;20434;-77
2024/01/24 03:30:00;;;;;;;31.40;16.88;;;;;;;;;;5031143;28;20418;-76
2024/01/24 03:32:25;;;;;;;33.22;17.52;;;;;;;;;;5031421;28;20025;-79
2024/01/24 03:34:53;;;;;;;28.88;15.52;;;;;;;;;;5016758;28;20034;-78
2024/01/24 03:37:19;;;;;;;33.47;14.40;;;;;;;;;;5012745;28;20062;-79
2024/01/24 03:39:45;;;;;;;27.25;14.73;;;;;;;;;;4993582;28;20065;-77
2024/01/24 03:42:10;;;;;;;28.95;13.45;;;;;;;;;;5011602;28;20049;-77
2024/01/24 03:44:36;;;;;;;29.02;14.73;;;;;;;;;;5011423;28;20573;-78
2024/01/24 03:47:02;;;;;;;28.30;14.52;;;;;;;;;;5011154;28;20032;-77
2024/01/24 03:49:27;;;;;;;28.85;14.52;;;;;;;;;;5012766;28;20060;-78
2024/01/24 03:51:54;;;;;;;32.17;15.40;;;;;;;;;;5012644;28;20518;-77
2024/01/24 03:54:19;;;;;;;31.02;15.57;;;;;;;;;;4998095;28;20025;-77
2024/01/24 03:56:46;;;;;;;28.38;14.70;;;;;;;;;;4991597;28;20030;-79
2024/01/24 03:59:12;;;;;;;34.15;15.15;;;;;;;;;;5009586;28;20487;-78
2024/01/24 04:01:37;;;;;;;26.13;14.10;;;;;;;;;;4994476;28;20076;-78
2024/01/24 04:04:03;;;;;;;27.92;14.10;;;;;;;;;;4992963;28;20032;-78
2024/01/24 04:06:29;;;;;;;27.88;14.25;;;;;;;;;;5010541;28;20396;-77
2024/01/24 04:08:55;;;;;;;30.88;14.63;;;;;;;;;;5012791;28;20079;-78
2024/01/24 04:11:20;;;;;;;30.75;14.95;;;;;;;;;;5011891;28;20049;-77
2024/01/24 04:13:52;;;;;;;26.13;15.02;;;;;;;;;;5010255;28;20045;-78
2024/01/24 04:16:18;;;;;;;33.47;16.08;;;;;;;;;;5011100;28;20045;-78
2024/01/24 04:18:44;;;;;;;28.05;15.05;;;;;;;;;;5012493;28;20022;-76
2024/01/24 04:21:09;;;;;;;33.55;15.85;;;;;;;;;;5012314;28;20045;-77
2024/01/24 04:23:35;;;;;;;39.85;16.52;;;;;;;;;;5010952;28;20116;-78
2024/01/24 04:26:06;;;;;;;26.00;14.52;;;;;;;;;;5010837;28;20395;-78
2024/01/24 04:28:32;;;;;;;25.25;13.48;;;;;;;;;;5012500;28;20100;-78
2024/01/24 04:30:58;;;;;;;27.75;13.88;;;;;;;;;;5011294;28;20479;-78
2024/01/24 04:33:24;;;;;;;25.58;13.05;;;;;;;;;;5010974;28;20021;-78
2024/01/24 04:35:50;;;;;;;27.92;14.25;;;;;;;;;;5012051;28;20525;-77
2024/01/24 04:38:16;;;;;;;22.70;13.18;;;;;;;;;;5011523;28;20117;-78
2024/01/24 04:40:42;;;;;;;33.17;15.27;;;;;;;;;;5012148;28;20030;-78
2024/01/24 04:43:08;;;;;;;36.08;15.30;;;;;;;;;;5010936;28;20044;-78
2024/01/24 04:45:34;;;;;;;32.22;15.65;;;;;;;;;;5011634;28;20033;-78
2024/01/24 04:48:09;;;;;;;37.15;15.13;;;;;;;;;;5011794;28;20032;-78
2024/01/24 04:50:35;;;;;;;29.20;14.07;;;;;;;;;;5011420;28;20061;-78
2024/01/24 04:53:01;;;;;;;29.40;14.40;;;;;;;;;;5011983;28;20057;-77
2024/01/24 04:55:26;;;;;;;38.75;15.27;;;;;;;;;;5011914;28;20026;-78
2024/01/24 04:57:52;;;;;;;37.33;15.50;;;;;;;;;;5010202;28;20058;-78
2024/01/24 05:00:19;;;;;;;41.88;16.20;;;;;;;;;;5011671;28;20037;-78
2024/01/24 05:02:45;;;;;;;30.25;12.77;;;;;;;;;;5011415;28;20022;-78
2024/01/24 05:05:10;;;;;;;29.80;12.55;;;;;;;;;;5009749;28;20248;-78
2024/01/24 05:07:36;;;;;;;22.15;12.32;;;;;;;;;;5011243;28;20053;-78
2024/01/24 05:10:03;;;;;;;35.35;11.65;;;;;;;;;;5011383;28;20063;-77
2024/01/24 05:12:31;;;;;;;29.15;13.60;;;;;;;;;;5011058;28;20038;-78
2024/01/24 05:14:56;;;;;;;29.35;12.57;;;;;;;;;;5011143;28;20026;-79
2024/01/24 05:17:22;;;;;;;25.00;11.45;;;;;;;;;;5011147;28;20045;-78
2024/01/24 05:19:48;;;;;;;24.50;10.30;;;;;;;;;;5010783;28;20133;-77
2024/01/24 05:22:15;;;;;;;27.15;10.63;;;;;;;;;;5009699;28;20117;-79
2024/01/24 05:24:45;;;;;;;23.27;11.30;;;;;;;;;;5010940;28;20084;-77
2024/01/24 05:27:12;;;;;;;23.13;11.30;;;;;;;;;;5009922;28;20088;-78
2024/01/24 05:29:39;;;;;;;25.02;11.05;;;;;;;;;;4977601;28;20022;-78
2024/01/24 05:32:08;;;;;;;27.90;11.25;;;;;;;;;;5011026;28;20033;-78
2024/01/24 05:34:34;;;;;;;25.02;11.88;;;;;;;;;;5010186;28;20044;-77
2024/01/24 05:36:59;;;;;;;26.73;14.48;;;;;;;;;;5010107;28;20029;-78
2024/01/24 05:39:25;;;;;;;23.83;12.73;;;;;;;;;;5010495;28;20030;-78
2024/01/24 05:41:51;;;;;;;36.63;13.77;;;;;;;;;;5010813;28;20026;-78
2024/01/24 05:44:16;;;;;;;26.67;11.98;;;;;;;;;;5010994;28;20125;-78
2024/01/24 05:46:42;;;;;;;61.53;17.98;;;;;;;;;;5010786;28;20022;-78
2024/01/24 05:49:08;;;;;;;69.85;26.55;;;;;;;;;;5010821;28;20061;-78
2024/01/24 05:51:34;;;;;;;78.72;35.92;;;;;;;;;;5012947;28;20064;-78
2024/01/24 05:53:59;;;;;;;38.58;16.73;;;;;;;;;;5014416;28;20064;-78
2024/01/24 05:56:25;;;;;;;34.50;17.38;;;;;;;;;;5012541;28;20499;-78
2024/01/24 05:58:51;;;;;;;37.22;17.73;;;;;;;;;;5014212;28;20030;-78
2024/01/24 06:01:17;;;;;;;32.55;16.13;;;;;;;;;;5013817;28;20037;-77
2024/01/24 06:03:43;;;;;;;34.03;16.35;;;;;;;;;;5013724;28;20025;-77
2024/01/24 06:06:08;;;;;;;24.35;12.35;;;;;;;;;;5013586;28;20065;-78
2024/01/24 06:08:34;;;;;;;25.83;13.07;;;;;;;;;;5011932;28;20057;-78
2024/01/24 06:11:00;;;;;;;25.65;13.00;;;;;;;;;;5012221;28;20084;-78
2024/01/24 06:13:27;;;;;;;20.50;12.45;;;;;;;;;;5012628;28;20041;-78
2024/01/24 06:15:53;;;;;;;20.52;10.13;;;;;;;;;;5012332;28;20018;-79
2024/01/24 06:18:19;;;;;;;17.60;9.95;;;;;;;;;;5012235;28;20519;-77
2024/01/24 06:20:45;;;;;;;26.45;11.98;;;;;;;;;;5012238;28;20061;-77
2024/01/24 06:23:12;;;;;;;26.30;13.00;;;;;;;;;;5012922;28;20113;-79
2024/01/24 06:25:38;;;;;;;30.08;14.82;;;;;;;;;;5011259;28;20034;-78
2024/01/24 06:28:04;;;;;;;24.88;13.73;;;;;;;;;;5013084;28;20133;-78
2024/01/24 06:30:30;;;;;;;31.63;13.55;;;;;;;;;;5012590;28;20026;-79
2024/01/24 06:32:57;;;;;;;33.60;13.93;;;;;;;;;;5012789;28;20423;-77
2024/01/24 06:35:23;;;;;;;27.25;14.27;;;;;;;;;;5010854;28;20040;-78
2024/01/24 06:37:51;;;;;;;29.48;13.70;;;;;;;;;;5010588;28;20029;-78
2024/01/24 06:40:19;;;;;;;25.08;12.75;;;;;;;;;;5011015;28;20490;-78
2024/01/24 06:42:45;;;;;;;23.95;13.77;;;;;;;;;;5011482;28;20113;-78
2024/01/24 06:45:11;;;;;;;23.95;14.35;;;;;;;;;;5011251;28;20527;-79
2024/01/24 06:47:37;;;;;;;25.23;14.45;;;;;;;;;;5011655;28;20117;-79
2024/01/24 06:50:05;;;;;;;35.25;14.35;;;;;;;;;;4994916;28;20029;-78
2024/01/24 06:52:31;;;;;;;26.48;14.55;;;;;;;;;;5012679;28;20057;-79
2024/01/24 06:54:57;;;;;;;40.05;16.58;;;;;;;;;;5010283;28;20084;-77
2024/01/24 06:57:24;;;;;;;48.50;19.00;;;;;;;;;;5009468;28;20052;-79
2024/01/24 06:59:50;;;;;;;40.92;20.58;;;;;;;;;;5012256;28;20729;-79
2024/01/24 07:02:15;;;;;;;36.83;18.08;;;;;;;;;;5011463;28;20038;-79
2024/01/24 07:04:41;;;;;;;38.58;20.73;;;;;;;;;;5012414;28;20041;-79
2024/01/24 07:07:08;;;;;;;47.55;22.25;;;;;;;;;;5011470;28;20474;-78
2024/01/24 07:09:35;;;;;;;39.80;18.33;;;;;;;;;;5011703;28;20216;-78
2024/01/24 07:12:02;;;;;;;38.75;19.73;;;;;;;;;;5011223;28;20522;-78
2024/01/24 07:14:27;;;;;;;34.45;15.68;;;;;;;;;;4994345;28;20018;-78
2024/01/24 07:16:54;;;;;;;33.67;15.68;;;;;;;;;;5010932;28;20126;-78
2024/01/24 07:19:20;;;;;;;39.03;16.33;;;;;;;;;;4994344;28;20663;-79
2024/01/24 07:21:47;;;;;;;25.55;14.10;;;;;;;;;;5010805;28;20136;-79
2024/01/24 07:24:13;;;;;;;24.10;14.73;;;;;;;;;;5010921;28;20038;-79
2024/01/24 07:26:40;;;;;;;30.42;15.55;;;;;;;;;;5013305;28;20034;-77
2024/01/24 07:29:06;;;;;;;33.15;16.50;;;;;;;;;;5000875;28;20750;-78
2024/01/24 07:31:32;;;;;;;37.88;19.20;;;;;;;;;;5012775;28;20033;-78
2024/01/24 07:33:58;;;;;;;46.60;20.60;;;;;;;;;;5009596;28;20131;-77
2024/01/24 07:36:26;;;;;;;33.90;16.85;;;;;;;;;;5011281;28;20057;-79
2024/01/24 07:38:53;;;;;;;43.90;17.42;;;;;;;;;;5010117;28;20506;-79
2024/01/24 07:41:18;;;;;;;24.80;13.88;;;;;;;;;;5010985;28;20041;-79
2024/01/24 07:43:44;;;;;;;19.25;11.75;;;;;;;;;;5010423;28;20379;-79
2024/01/24 07:46:10;;;;;;;36.22;13.23;;;;;;;;;;5010256;28;20411;-78
2024/01/24 07:48:36;;;;;;;24.90;12.80;;;;;;;;;;5009356;28;20033;-78
2024/01/24 07:51:04;;;;;;;20.40;10.43;;;;;;;;;;5009072;28;20100;-78
2024/01/24 07:53:30;;;;;;;32.65;16.95;;;;;;;;;;5011226;28;20522;-77
2024/01/24 07:55:56;;;;;;;38.60;19.50;;;;;;;;;;5010330;28;20056;-77
2024/01/24 07:58:22;;;;;;;46.55;20.00;;;;;;;;;;5010852;28;20129;-76
2024/01/24 08:00:48;;;;;;;27.33;15.43;;;;;;;;;;5011203;28;20562;-77
2024/01/24 08:03:14;;;;;;;27.25;14.75;;;;;;;;;;5010893;28;20121;-77
2024/01/24 08:05:40;;;;;;;39.08;16.73;;;;;;;;;;5008524;28;20070;-79
2024/01/24 08:08:06;;;;;;;22.60;12.75;;;;;;;;;;4994457;28;20061;-78
2024/01/24 08:10:31;;;;;;;30.38;13.30;;;;;;;;;;5005843;28;20034;-78
2024/01/24 08:12:59;;;;;;;20.25;12.07;;;;;;;;;;5008804;28;20060;-78
2024/01/24 08:15:26;;;;;;;23.75;13.80;;;;;;;;;;5010801;28;20033;-77
2024/01/24 08:17:51;;;;;;;26.30;14.18;;;;;;;;;;4993176;28;20069;-77
2024/01/24 08:20:19;;;;;;;23.48;13.23;;;;;;;;;;5010771;28;20069;-76
2024/01/24 08:22:45;;;;;;;32.47;16.27;;;;;;;;;;5009888;28;20029;-76
2024/01/24 08:25:11;;;;;;;38.75;17.60;;;;;;;;;;5008371;28;20153;-78
2024/01/24 08:27:37;;;;;;;35.88;16.50;;;;;;;;;;5009557;28;20523;-78
2024/01/24 08:30:03;;;;;;;37.10;18.20;;;;;;;;;;5010427;28;20097;-77
2024/01/24 08:32:29;;;;;;;33.58;16.30;;;;;;;;;;5009067;28;20203;-76
2024/01/24 08:34:56;;;;;;;49.47;21.27;;;;;;;;;;5008493;28;20159;-81
2024/01/24 08:37:21;;;;;;;31.05;15.43;;;;;;;;;;5009885;28;20049;-77
2024/01/24 08:39:47;;;;;;;36.05;16.92;;;;;;;;;;5009181;28;20034;-77
2024/01/24 08:42:13;;;;;;;39.53;16.40;;;;;;;;;;5009564;28;20040;-77
2024/01/24 08:44:39;;;;;;;34.05;15.27;;;;;;;;;;5009381;28;20057;-78
2024/01/24 08:47:04;;;;;;;31.83;15.38;;;;;;;;;;5010896;28;20105;-77
2024/01/24 08:49:31;;;;;;;29.17;16.02;;;;;;;;;;5008637;28;20038;-76
2024/01/24 08:51:57;;;;;;;27.73;14.82;;;;;;;;;;5010223;28;20144;-76
2024/01/24 08:54:23;;;;;;;45.38;18.58;;;;;;;;;;5009857;28;20030;-77
2024/01/24 08:56:48;;;;;;;31.00;16.80;;;;;;;;;;5009906;28;20092;-77
2024/01/24 08:59:14;;;;;;;34.67;18.48;;;;;;;;;;5009449;28;20030;-77
2024/01/24 09:01:41;;;;;;;32.00;18.13;;;;;;;;;;5008846;28;20136;-76
2024/01/24 09:04:06;;;;;;;25.52;15.93;;;;;;;;;;5008861;28;20036;-77
2024/01/24 09:06:32;;;;;;;36.40;18.00;;;;;;;;;;5005915;28;20438;-76
2024/01/24 09:08:58;;;;;;;44.55;18.83;;;;;;;;;;5010164;28;20038;-76
2024/01/24 09:11:24;;;;;;;36.45;18.33;;;;;;;;;;5009105;28;20150;-77
2024/01/24 09:13:50;;;;;;;31.65;16.48;;;;;;;;;;5008390;28;20077;-77
2024/01/24 09:16:16;;;;;;;34.42;17.15;;;;;;;;;;5010095;28;20537;-78
2024/01/24 09:18:42;;;;;;;37.97;17.13;;;;;;;;;;5010581;28;20034;-78
2024/01/24 09:21:09;;;;;;;40.60;16.15;;;;;;;;;;5009872;28;20030;-76
2024/01/24 09:23:34;;;;;;;25.77;14.98;;;;;;;;;;5009217;28;20045;-77
2024/01/24 09:26:02;;;;;;;29.48;17.58;;;;;;;;;;5009388;28;20052;-78
2024/01/24 09:28:29;;;;;;;34.58;18.25;;;;;;;;;;5012491;28;20033;-77
2024/01/24 09:30:54;;;;;;;30.88;17.25;;;;;;;;;;5012856;28;20037;-77
2024/01/24 09:33:20;;;;;;;32.05;17.38;;;;;;;;;;5013610;28;20118;-77
2024/01/24 09:35:46;;;;;;;31.02;17.35;;;;;;;;;;4996971;28;20038;-78
2024/01/24 09:38:13;;;;;;;27.27;15.63;;;;;;;;;;5012206;28;20084;-78
2024/01/24 09:40:40;;;;;;;33.65;16.90;;;;;;;;;;5013840;28;20064;-79
2024/01/24 09:43:08;;;;;;;25.20;14.00;;;;;;;;;;5010766;28;20424;-80
2024/01/24 09:45:43;;;;;;;29.77;13.98;;;;;;;;;;5002039;28;20053;-79
2024/01/24 09:48:11;;;;;;;28.63;13.90;;;;;;;;;;5007184;28;20056;-78
2024/01/24 09:50:38;;;;;;;30.02;14.60;;;;;;;;;;5013439;28;20038;-78
2024/01/24 09:53:08;;;;;;;34.33;14.57;;;;;;;;;;5013581;28;20036;-78
2024/01/24 09:55:34;;;;;;;24.60;13.20;;;;;;;;;;5013241;28;20042;-78
2024/01/24 09:58:01;;;;;;;20.73;11.73;;;;;;;;;;5011653;28;20054;-78
2024/01/24 10:00:27;;;;;;;29.67;12.50;;;;;;;;;;5013573;28;20032;-79
2024/01/24 10:02:55;;;;;;;26.52;12.93;;;;;;;;;;5014768;28;20108;-77
2024/01/24 10:05:22;;;;;;;25.52;11.70;;;;;;;;;;5011894;28;20070;-76
2024/01/24 10:07:50;;;;;;;46.42;15.35;;;;;;;;;;5011905;28;20400;-77
2024/01/24 10:10:15;;;;;;;27.63;13.25;;;;;;;;;;5014223;28;20026;-76
2024/01/24 10:12:42;;;;;;;24.33;13.75;;;;;;;;;;5013457;28;20069;-75
2024/01/24 10:15:09;;;;;;;28.05;15.05;;;;;;;;;;5013039;28;20034;-76
2024/01/24 10:17:40;;;;;;;24.35;14.00;;;;;;;;;;5004002;28;20408;-76
2024/01/24 10:20:08;;;;;;;26.50;15.00;;;;;;;;;;5005506;28;20041;-76
2024/01/24 10:22:34;;;;;;;27.77;14.80;;;;;;;;;;5012980;28;20049;-74
2024/01/24 10:25:00;;;;;;;34.30;15.07;;;;;;;;;;5013231;28;20038;-75
2024/01/24 10:27:27;;;;;;;32.60;17.30;;;;;;;;;;5012808;28;20038;-77
2024/01/24 10:29:53;;;;;;;31.45;15.38;;;;;;;;;;5012629;28;20048;-76
2024/01/24 10:32:20;;;;;;;25.95;14.57;;;;;;;;;;5011994;28;20042;-76
2024/01/24 10:34:49;;;;;;;26.33;13.70;;;;;;;;;;5013447;28;20034;-75
2024/01/24 10:37:18;;;;;;;22.67;13.15;;;;;;;;;;5011816;28;20110;-77
2024/01/24 10:39:44;;;;;;;20.02;12.30;;;;;;;;;;5012500;28;20127;-75
2024/01/24 10:42:12;;;;;;;26.42;13.25;;;;;;;;;;5012572;28;20188;-76
2024/01/24 10:44:43;;;;;;;19.48;12.40;;;;;;;;;;5011133;28;20121;-77
2024/01/24 10:47:09;;;;;;;23.00;12.02;;;;;;;;;;5010581;28;20041;-77
2024/01/24 10:49:37;;;;;;;32.25;13.35;;;;;;;;;;5010126;28;20071;-77
2024/01/24 10:52:04;;;;;;;21.48;11.45;;;;;;;;;;5012573;28;20129;-76
2024/01/24 10:54:31;;;;;;;32.63;11.93;;;;;;;;;;5012696;28;20411;-78
2024/01/24 10:56:59;;;;;;;21.00;11.75;;;;;;;;;;5030586;28;20029;-76
2024/01/24 10:59:29;;;;;;;25.90;11.63;;;;;;;;;;5030790;28;20084;-76
2024/01/24 11:01:55;;;;;;;17.45;11.00;;;;;;;;;;5032973;28;20040;-76
2024/01/24 11:04:23;;;;;;;20.63;11.15;;;;;;;;;;5018718;28;20033;-76
2024/01/24 11:06:59;;;;;;;22.10;11.95;;;;;;;;;;5012804;28;20030;-76
2024/01/24 11:09:36;;;;;;;21.23;11.88;;;;;;;;;;5012072;28;20033;-79
2024/01/24 11:12:02;;;;;;;18.63;12.10;;;;;;;;;;5012148;28;20456;-77
2024/01/24 11:14:33;;;;;;;16.52;8.55;;;;;;;;;;5010991;28;20068;-79
2024/01/24 11:17:01;;;;;;;20.90;11.27;;;;;;;;;;5010062;28;20034;-76
2024/01/24 11:19:28;;;;;;;24.55;11.32;;;;;;;;;;5010991;28;20097;-76
2024/01/24 11:22:01;;;;;;;14.05;8.98;;;;;;;;;;5012839;28;20034;-76
2024/01/24 11:24:39;;;;;;;23.88;8.82;;;;;;;;;;5012040;28;20048;-76
2024/01/24 11:27:24;;;;;;;15.27;8.07;;;;;;;;;;4993584;28;20117;-78
2024/01/24 11:29:54;;;;;;;19.70;9.07;;;;;;;;;;4994921;28;20038;-76
2024/01/24 11:32:55;;;;;;;16.92;8.27;;;;;;;;;;5012800;28;20034;-77
2024/01/24 11:35:37;;;;;;;11.80;7.10;;;;;;;;;;5020136;28;20038;-75
2024/01/24 11:38:28;;;;;;;13.77;7.72;;;;;;;;;;5011986;28;20033;-80
2024/01/24 11:41:10;;;;;;;12.45;6.55;;;;;;;;;;5011359;28;20045;-78
2024/01/24 11:43:36;;;;;;;17.40;7.25;;;;;;;;;;5012065;28;20040;-77
2024/01/24 11:46:03;;;;;;;14.13;7.65;;;;;;;;;;5012542;28;20045;-77
2024/01/24 11:48:31;;;;;;;11.27;6.90;;;;;;;;;;5009550;28;20036;-78
2024/01/24 11:51:01;;;;;;;12.88;7.28;;;;;;;;;;5011784;28;20476;-78
2024/01/24 11:53:29;;;;;;;10.05;6.20;;;;;;;;;;5011188;28;20084;-75
2024/01/24 11:56:01;;;;;;;13.52;6.80;;;;;;;;;;5009595;28;20434;-78
2024/01/24 11:58:29;;;;;;;11.50;7.15;;;;;;;;;;5011050;28;20038;-77
2024/01/24 12:01:04;;;;;;;14.80;6.45;;;;;;;;;;5011375;28;20030;-77
2024/01/24 12:03:30;;;;;;;10.02;5.65;;;;;;;;;;5011301;28;20470;-77
2024/01/24 12:05:56;;;;;;;8.63;4.70;;;;;;;;;;5009672;28;20100;-77
2024/01/24 12:08:22;;;;;;;9.57;4.80;;;;;;;;;;5013265;28;20040;-77
2024/01/24 12:10:48;;;;;;;13.82;5.65;;;;;;;;;;5011787;28;20054;-77
2024/01/24 12:13:16;;;;;;;7.90;5.20;;;;;;;;;;5012657;28;20514;-77
2024/01/24 12:15:42;;;;;;;7.43;4.60;;;;;;;;;;5010715;28;20037;-76
2024/01/24 12:18:09;;;;;;;9.63;5.82;;;;;;;;;;5011322;28;20034;-77
2024/01/24 12:20:37;;;;;;;9.15;5.32;;;;;;;;;;5011749;28;20038;-77
2024/01/24 12:23:04;;;;;;;8.82;5.75;;;;;;;;;;5010819;28;20112;-76
2024/01/24 12:25:32;;;;;;;14.95;6.22;;;;;;;;;;5010016;28;20033;-77
2024/01/24 12:27:58;;;;;;;10.60;5.03;;;;;;;;;;5009331;28;20125;-77
2024/01/24 12:30:35;;;;;;;8.23;4.55;;;;;;;;;;5011167;28;20037;-76
2024/01/24 12:33:03;;;;;;;10.18;5.13;;;;;;;;;;5011756;28;20399;-77
2024/01/24 12:35:29;;;;;;;9.82;4.63;;;;;;;;;;5010348;28;20388;-76
2024/01/24 12:38:03;;;;;;;11.82;4.97;;;;;;;;;;5008731;28;20038;-77
2024/01/24 12:40:31;;;;;;;9.70;4.97;;;;;;;;;;5009797;28;20034;-76
2024/01/24 12:42:59;;;;;;;9.68;4.60;;;;;;;;;;5010862;28;20082;-77
2024/01/24 12:45:27;;;;;;;36.40;13.80;;;;;;;;;;5011466;28;20096;-77
2024/01/24 12:47:54;;;;;;;11.10;5.68;;;;;;;;;;5011268;28;20394;-77
2024/01/24 12:50:23;;;;;;;11.15;5.82;;;;;;;;;;4990596;28;20067;-77
2024/01/24 12:52:50;;;;;;;8.52;4.70;;;;;;;;;;4991391;28;20035;-77
2024/01/24 12:55:16;;;;;;;18.58;5.57;;;;;;;;;;4991168;28;20117;-75
2024/01/24 12:57:44;;;;;;;9.40;5.00;;;;;;;;;;5008347;28;20514;-77
2024/01/24 13:00:10;;;;;;;21.63;10.73;;;;;;;;;;5011242;28;20026;-77
2024/01/24 13:02:38;;;;;;;10.48;5.22;;;;;;;;;;5013699;28;20111;-77
2024/01/24 13:05:08;;;;;;;17.20;7.15;;;;;;;;;;5014920;28;20022;-77
2024/01/24 13:07:39;;;;;;;11.82;5.80;;;;;;;;;;5013917;28;20042;-78
2024/01/24 13:10:06;;;;;;;11.20;5.72;;;;;;;;;;5015336;28;20037;-78
2024/01/24 13:16:19;;;;;;;13.00;5.95;;;;;;;;;;5015497;28;20037;-76
2024/01/24 13:18:45;;;;;;;12.77;5.45;;;;;;;;;;5016797;28;20041;-76
2024/01/24 13:21:11;;;;;;;11.30;5.55;;;;;;;;;;5015498;28;20033;-77
2024/01/24 13:23:39;;;;;;;12.88;5.40;;;;;;;;;;5014970;28;20099;-78
2024/01/24 13:26:05;;;;;;;11.00;4.95;;;;;;;;;;5013802;28;20480;-77
2024/01/24 13:28:31;;;;;;;11.50;5.22;;;;;;;;;;5019822;28;20112;-76
2024/01/24 13:30:56;;;;;;;9.00;4.60;;;;;;;;;;5017941;28;20419;-76
2024/01/24 13:33:22;;;;;;;7.00;4.18;;;;;;;;;;5013471;28;20084;-76
2024/01/24 13:35:48;;;;;;;16.42;5.45;;;;;;;;;;5014346;28;20026;-76
2024/01/24 13:38:14;;;;;;;20.58;5.57;;;;;;;;;;5014774;28;20026;-78
2024/01/24 13:40:41;;;;;;;13.30;5.40;;;;;;;;;;5013499;28;20072;-77
2024/01/24 13:43:07;;;;;;;12.82;5.13;;;;;;;;;;5013392;28;20026;-78
2024/01/24 13:45:32;;;;;;;11.70;5.40;;;;;;;;;;5014325;28;20029;-77
2024/01/24 13:47:58;;;;;;;16.83;5.97;;;;;;;;;;5013204;28;20042;-77
2024/01/24 13:50:24;;;;;;;11.38;5.40;;;;;;;;;;5014044;28;20126;-77
2024/01/24 13:52:50;;;;;;;10.15;4.72;;;;;;;;;;5012612;28;20042;-77
2024/01/24 13:55:16;;;;;;;8.77;3.85;;;;;;;;;;5013772;28;20038;-77
2024/01/24 13:57:43;;;;;;;8.70;4.47;;;;;;;;;;5013017;28;20458;-76
2024/01/24 14:00:13;;;;;;;8.43;4.10;;;;;;;;;;5012455;28;20049;-79
2024/01/24 14:02:39;;;;;;;22.15;4.97;;;;;;;;;;5002958;28;20038;-76
2024/01/24 14:05:05;;;;;;;8.27;4.72;;;;;;;;;;5003397;28;20076;-76
2024/01/24 14:07:31;;;;;;;13.15;5.20;;;;;;;;;;5013749;28;20038;-78
2024/01/24 14:09:57;;;;;;;7.93;4.60;;;;;;;;;;5012380;28;20033;-77
2024/01/24 14:12:23;;;;;;;7.28;4.60;;;;;;;;;;5013695;28;20038;-77
2024/01/24 14:14:49;;;;;;;16.15;5.32;;;;;;;;;;5013700;28;20026;-78
2024/01/24 14:17:15;;;;;;;10.32;4.15;;;;;;;;;;4999809;28;20180;-78
2024/01/24 14:19:41;;;;;;;10.52;6.38;;;;;;;;;;4998324;28;20037;-78
2024/01/24 14:22:06;;;;;;;11.10;4.53;;;;;;;;;;5012197;28;20029;-78